createdAt,value
2023-03-20T00:02:28.428Z,11.26
2023-03-20T00:04:57.139Z,11.26
2023-03-20T00:07:26.527Z,11.24
2023-03-20T00:09:57.832Z,11.22
2023-03-20T00:12:27.968Z,11.22
2023-03-20T00:14:56.865Z,11.24
2023-03-20T00:17:25.617Z,11.24
2023-03-20T00:19:54.370Z,11.23
2023-03-20T00:22:23.409Z,11.23
2023-03-20T00:24:52.173Z,11.26
2023-03-20T00:27:21.047Z,11.27
2023-03-20T00:29:53.023Z,11.28
2023-03-20T00:32:22.328Z,11.28
2023-03-20T00:34:51.052Z,11.27
2023-03-20T00:37:19.806Z,11.28
2023-03-20T00:39:48.477Z,11.27
2023-03-20T00:42:23.170Z,11.27
2023-03-20T00:44:55.890Z,11.25
2023-03-20T00:47:28.568Z,11.24
2023-03-20T00:49:58.074Z,11.23
2023-03-20T00:52:27.558Z,11.21
2023-03-20T00:54:56.331Z,11.22
2023-03-20T00:57:27.768Z,11.21
2023-03-20T01:00:01.504Z,11.21
2023-03-20T01:02:31.647Z,11.22
2023-03-20T01:05:03.612Z,11.21
2023-03-20T01:07:32.556Z,11.20
2023-03-20T01:10:01.318Z,11.20
2023-03-20T01:12:30.320Z,11.19
2023-03-20T01:15:01.150Z,11.20
2023-03-20T01:17:30.986Z,11.18
2023-03-20T01:19:59.764Z,11.17
2023-03-20T01:22:28.546Z,11.16
2023-03-20T01:24:57.478Z,11.16
2023-03-20T01:27:26.214Z,11.15
2023-03-20T01:29:54.980Z,11.15
2023-03-20T01:32:25.552Z,11.12
2023-03-20T01:34:54.654Z,11.13
2023-03-20T01:37:27.070Z,11.10
2023-03-20T01:39:58.588Z,11.10
2023-03-20T01:42:28.779Z,11.11
2023-03-20T01:44:57.504Z,11.10
2023-03-20T01:47:30.197Z,11.10
2023-03-20T01:50:30.883Z,11.05
2023-03-20T01:53:09.301Z,11.03
2023-03-20T01:55:45.545Z,10.97
2023-03-20T01:58:19.742Z,10.93
2023-03-20T02:00:49.958Z,10.92
2023-03-20T02:03:59.188Z,10.92
2023-03-20T02:06:48.385Z,10.89
2023-03-20T02:09:53.025Z,10.89
2023-03-20T02:12:29.511Z,10.88
2023-03-20T02:14:58.942Z,10.88
2023-03-20T02:18:03.197Z,10.87
2023-03-20T02:20:55.985Z,10.86
2023-03-20T02:23:59.053Z,10.81
2023-03-20T02:26:48.077Z,10.77
2023-03-20T02:30:01.277Z,10.75
2023-03-20T02:33:07.906Z,10.73
2023-03-20T02:36:16.618Z,10.71
2023-03-20T02:39:22.793Z,10.71
2023-03-20T02:42:01.536Z,10.71
2023-03-20T02:44:42.186Z,10.71
2023-03-20T02:47:18.179Z,10.71
2023-03-20T02:49:59.053Z,10.68
2023-03-20T02:52:43.056Z,10.69
2023-03-20T02:55:20.164Z,10.66
2023-03-20T02:57:59.844Z,10.28
2023-03-20T03:00:35.615Z,10.64
2023-03-20T03:03:13.205Z,10.61
2023-03-20T03:05:46.854Z,10.57
2023-03-20T03:08:19.561Z,10.54
2023-03-20T03:10:54.136Z,10.51
2023-03-20T03:13:29.126Z,10.51
2023-03-20T03:16:05.579Z,10.48
2023-03-20T03:18:36.991Z,10.04
2023-03-20T03:21:08.796Z,10.43
2023-03-20T03:23:44.677Z,10.41
2023-03-20T03:26:19.917Z,10.39
2023-03-20T03:28:52.777Z,10.35
2023-03-20T03:31:23.104Z,10.34
2023-03-20T03:33:54.217Z,10.35
2023-03-20T03:36:33.995Z,10.33
2023-03-20T03:39:12.694Z,10.33
2023-03-20T03:41:46.964Z,10.32
2023-03-20T03:44:23.736Z,9.76
2023-03-20T03:46:57.934Z,10.33
2023-03-20T03:49:32.115Z,10.32
2023-03-20T03:52:06.863Z,10.31
2023-03-20T03:54:42.587Z,9.30
2023-03-20T03:57:50.608Z,10.26
2023-03-20T04:00:25.075Z,10.23
2023-03-20T04:02:56.827Z,10.21
2023-03-20T04:05:31.428Z,10.20
2023-03-20T04:08:02.795Z,10.16
2023-03-20T04:10:31.645Z,10.15
2023-03-20T04:13:01.851Z,10.13
2023-03-20T04:15:30.636Z,10.09
2023-03-20T04:17:59.492Z,10.08
2023-03-20T04:20:29.596Z,10.07
2023-03-20T04:22:58.512Z,10.03
2023-03-20T04:25:28.744Z,9.99
2023-03-20T04:28:01.363Z,9.96
2023-03-20T04:30:54.396Z,9.91
2023-03-20T04:33:39.723Z,9.86
2023-03-20T04:36:43.477Z,9.79
2023-03-20T04:39:14.878Z,9.77
2023-03-20T04:41:43.745Z,9.75
2023-03-20T04:44:14.264Z,9.74
2023-03-20T04:46:46.180Z,9.76
2023-03-20T04:49:19.216Z,9.79
2023-03-20T04:51:48.840Z,9.83
2023-03-20T04:54:22.426Z,9.88
2023-03-20T04:56:51.249Z,9.93
2023-03-20T04:59:25.327Z,9.96
2023-03-20T05:01:54.100Z,9.98
2023-03-20T05:04:24.857Z,10.02
2023-03-20T05:06:53.575Z,10.05
2023-03-20T05:09:25.422Z,10.05
2023-03-20T05:11:55.496Z,10.05
2023-03-20T05:14:44.345Z,10.08
2023-03-20T05:17:45.300Z,10.11
2023-03-20T05:20:23.220Z,10.13
2023-03-20T05:22:59.855Z,10.17
2023-03-20T05:26:00.925Z,10.23
2023-03-20T05:28:48.024Z,10.21
2023-03-20T05:31:40.131Z,10.23
2023-03-20T05:34:29.054Z,10.26
2023-03-20T05:37:11.470Z,10.29
2023-03-20T05:39:58.886Z,10.34
2023-03-20T05:42:45.916Z,10.37
2023-03-20T05:45:41.233Z,10.40
2023-03-20T05:48:26.524Z,10.38
2023-03-20T05:51:21.558Z,10.39
2023-03-20T05:53:56.349Z,10.42
2023-03-20T05:56:43.317Z,10.48
2023-03-20T05:59:26.676Z,10.48
2023-03-20T06:02:33.957Z,10.55
2023-03-20T06:05:13.057Z,10.66
2023-03-20T06:07:48.141Z,10.72
2023-03-20T06:10:20.113Z,10.78
2023-03-20T06:12:51.463Z,10.83
2023-03-20T06:15:25.820Z,10.90
2023-03-20T06:18:01.388Z,11.02
2023-03-20T06:20:32.140Z,11.05
2023-03-20T06:23:05.339Z,11.11
2023-03-20T06:25:34.850Z,11.15
2023-03-20T06:28:04.921Z,11.26
2023-03-20T06:30:34.035Z,11.38
2023-03-20T06:33:03.549Z,11.39
2023-03-20T06:35:41.642Z,11.46
2023-03-20T06:38:10.980Z,11.55
2023-03-20T06:40:42.395Z,11.63
2023-03-20T06:43:12.467Z,11.67
2023-03-20T06:45:48.543Z,11.74
2023-03-20T06:48:26.339Z,11.82
2023-03-20T06:50:57.250Z,11.93
2023-03-20T06:53:33.544Z,12.02
2023-03-20T06:56:08.567Z,12.13
2023-03-20T06:58:37.273Z,12.20
2023-03-20T07:01:11.429Z,12.27
2023-03-20T07:03:40.387Z,12.30
2023-03-20T07:06:16.445Z,12.42
2023-03-20T07:08:45.764Z,12.45
2023-03-20T07:14:05.650Z,12.62
2023-03-20T07:16:46.469Z,12.68
2023-03-20T07:19:18.038Z,12.39
2023-03-20T07:21:51.059Z,12.90
2023-03-20T07:24:20.069Z,13.00
2023-03-20T07:26:48.771Z,13.06
2023-03-20T07:29:17.674Z,13.18
2023-03-20T07:31:47.527Z,13.34
2023-03-20T07:34:24.546Z,13.47
2023-03-20T07:36:56.409Z,13.55
2023-03-20T07:39:25.165Z,13.56
2023-03-20T07:42:09.236Z,13.55
2023-03-20T07:44:45.283Z,13.60
2023-03-20T07:47:14.018Z,13.68
2023-03-20T07:49:42.761Z,13.68
2023-03-20T07:52:15.483Z,13.56
2023-03-20T07:54:44.235Z,13.45
2023-03-20T07:57:13.144Z,13.43
2023-03-20T07:59:41.914Z,13.47
2023-03-20T08:02:16.240Z,13.64
2023-03-20T08:04:46.408Z,13.76
2023-03-20T08:07:16.854Z,13.88
2023-03-20T08:09:45.723Z,13.88
2023-03-20T08:12:14.751Z,13.88
2023-03-20T08:14:44.237Z,13.94
2023-03-20T08:17:16.165Z,14.08
2023-03-20T08:19:46.572Z,14.18
2023-03-20T08:22:16.726Z,14.40
2023-03-20T08:24:45.514Z,14.68
2023-03-20T08:27:14.449Z,14.97
2023-03-20T08:29:43.292Z,15.06
2023-03-20T08:32:12.012Z,15.05
2023-03-20T08:34:40.812Z,14.90
2023-03-20T08:37:09.969Z,14.68
2023-03-20T08:39:40.262Z,14.68
2023-03-20T08:42:09.026Z,14.59
2023-03-20T08:44:37.514Z,14.69
2023-03-20T08:47:07.657Z,14.90
2023-03-20T08:49:36.951Z,14.92
2023-03-20T08:52:07.016Z,14.94
2023-03-20T08:54:35.905Z,15.01
2023-03-20T08:57:06.151Z,15.13
2023-03-20T08:59:34.581Z,15.29
2023-03-20T09:02:03.574Z,15.23
2023-03-20T09:04:31.955Z,15.02
2023-03-20T09:07:01.278Z,14.72
2023-03-20T09:09:30.375Z,14.50
2023-03-20T09:11:59.996Z,14.26
2023-03-20T09:14:30.895Z,14.10
2023-03-20T09:16:59.905Z,13.77
2023-03-20T09:19:30.582Z,13.69
2023-03-20T09:21:59.820Z,13.35
2023-03-20T09:24:29.474Z,13.11
2023-03-20T09:26:58.646Z,12.93
2023-03-20T09:29:27.440Z,12.74
2023-03-20T09:31:57.732Z,12.57
2023-03-20T09:34:26.515Z,12.36
2023-03-20T09:37:12.450Z,12.31
2023-03-20T09:43:25.295Z,12.27
2023-03-20T09:46:01.309Z,12.25
2023-03-20T09:48:36.385Z,12.21
2023-03-20T09:51:17.327Z,12.06
2023-03-20T09:53:53.804Z,12.14
2023-03-20T09:56:28.423Z,12.21
2023-03-20T09:58:59.664Z,12.36
2023-03-20T10:27:07.229Z,13.47
2023-03-20T10:29:49.141Z,13.26
2023-03-20T10:32:26.619Z,12.96
2023-03-20T10:35:06.831Z,12.74
2023-03-20T10:37:51.398Z,12.73
2023-03-20T10:40:32.195Z,12.79
2023-03-20T10:43:07.585Z,12.78
2023-03-20T10:45:42.211Z,12.90
2023-03-20T10:48:21.925Z,12.65
2023-03-20T10:50:54.925Z,12.51
2023-03-20T10:53:35.709Z,12.41
2023-03-20T10:56:08.920Z,12.09
2023-03-20T11:03:26.326Z,11.92
2023-03-20T11:07:40.844Z,11.70
2023-03-20T11:11:08.751Z,11.57
2023-03-20T11:13:40.450Z,11.58
2023-03-20T11:16:33.098Z,11.47
2023-03-20T11:19:08.486Z,11.43
2023-03-20T11:21:46.250Z,11.32
2023-03-20T11:24:26.986Z,11.20
2023-03-20T11:27:05.269Z,10.99
2023-03-20T11:29:35.944Z,10.68
2023-03-20T11:32:17.981Z,11.02
2023-03-20T11:34:47.800Z,10.98
2023-03-20T11:37:27.146Z,10.98
2023-03-20T11:39:59.902Z,10.98
2023-03-20T11:42:31.536Z,10.98
2023-03-20T11:45:02.814Z,11.00
2023-03-20T11:47:35.733Z,11.17
2023-03-20T11:50:07.256Z,11.15
2023-03-20T11:52:38.383Z,11.17
2023-03-20T11:55:24.844Z,11.24
2023-03-20T11:57:59.046Z,11.27
2023-03-20T12:00:36.962Z,11.22
2023-03-20T12:03:33.914Z,11.09
2023-03-20T12:06:02.832Z,10.98
2023-03-20T12:08:33.622Z,11.16
2023-03-20T12:11:10.907Z,11.21
2023-03-20T12:13:44.660Z,11.30
2023-03-20T12:16:18.538Z,11.29
2023-03-20T12:18:53.327Z,11.33
2023-03-20T12:21:28.271Z,11.59
2023-03-20T12:24:03.081Z,12.25
2023-03-20T12:26:37.245Z,12.62
2023-03-20T12:29:12.159Z,12.53
2023-03-20T12:31:47.864Z,12.41
2023-03-20T12:34:25.248Z,12.21
2023-03-20T12:36:57.569Z,12.37
2023-03-20T12:39:29.635Z,12.49
2023-03-20T12:42:10.673Z,12.59
2023-03-20T12:44:47.888Z,12.53
2023-03-20T12:47:36.168Z,12.39
2023-03-20T12:50:17.828Z,12.58
2023-03-20T12:52:53.039Z,13.09
2023-03-20T12:55:29.673Z,13.46
2023-03-20T12:58:12.062Z,13.77
2023-03-20T13:00:49.810Z,14.31
2023-03-20T13:03:41.246Z,14.82
2023-03-20T13:06:18.007Z,15.05
2023-03-20T13:09:19.155Z,14.80
2023-03-20T13:11:56.482Z,14.67
2023-03-20T13:14:34.245Z,14.64
2023-03-20T13:17:17.310Z,14.76
2023-03-20T13:19:53.404Z,14.77
2023-03-20T13:22:38.981Z,14.68
2023-03-20T13:25:29.963Z,14.72
2023-03-20T13:28:04.661Z,14.95
2023-03-20T13:30:38.722Z,15.10
2023-03-20T13:33:27.160Z,15.03
2023-03-20T13:36:01.821Z,15.16
2023-03-20T13:38:36.258Z,15.04
2023-03-20T13:41:10.008Z,14.90
2023-03-20T13:43:44.281Z,14.72
2023-03-20T13:46:17.703Z,14.54
2023-03-20T13:48:47.750Z,14.71
2023-03-20T13:51:27.684Z,14.80
2023-03-20T13:54:14.745Z,14.74
2023-03-20T13:56:54.513Z,14.55
2023-03-20T13:59:48.933Z,14.39
2023-03-20T14:02:36.782Z,14.29
2023-03-20T14:05:12.275Z,14.30
2023-03-20T14:07:45.156Z,14.36
2023-03-20T14:10:38.411Z,14.54
2023-03-20T14:13:13.809Z,14.57
2023-03-20T14:15:49.086Z,14.58
2023-03-20T14:18:19.926Z,14.36
2023-03-20T14:20:56.664Z,14.29
2023-03-20T14:23:37.737Z,14.35
2023-03-20T14:26:11.625Z,14.43
2023-03-20T14:28:54.277Z,14.33
2023-03-20T14:31:26.293Z,14.21
2023-03-20T14:34:08.188Z,14.03
2023-03-20T14:36:53.148Z,14.10
2023-03-20T14:39:34.639Z,13.84
2023-03-20T14:42:23.765Z,14.09
2023-03-20T14:45:17.501Z,13.83
2023-03-20T14:47:52.562Z,13.76
2023-03-20T14:50:27.855Z,13.76
2023-03-20T14:53:14.821Z,13.77
2023-03-20T14:55:53.345Z,13.84
2023-03-20T14:58:49.021Z,13.98
2023-03-20T15:01:26.486Z,14.02
2023-03-20T15:03:59.083Z,13.98
2023-03-20T15:06:29.796Z,13.79
2023-03-20T15:09:01.210Z,13.68
2023-03-20T15:11:30.804Z,13.59
2023-03-20T15:14:04.396Z,13.43
2023-03-20T15:16:35.005Z,13.35
2023-03-20T15:19:08.144Z,13.34
2023-03-20T15:21:45.408Z,13.28
2023-03-20T15:24:23.171Z,13.36
2023-03-20T15:26:55.571Z,13.46
2023-03-20T15:29:26.023Z,13.50
2023-03-20T15:32:12.986Z,13.56
2023-03-20T15:34:44.522Z,13.46
2023-03-20T15:37:17.562Z,13.25
2023-03-20T15:39:48.787Z,13.04
2023-03-20T15:42:22.350Z,12.96
2023-03-20T15:44:56.855Z,12.94
2023-03-20T15:47:27.275Z,12.92
2023-03-20T15:49:58.699Z,12.82
2023-03-20T15:55:47.095Z,12.61
2023-03-20T15:58:16.997Z,12.62
2023-03-20T16:00:49.867Z,12.70
2023-03-20T16:03:22.339Z,12.67
2023-03-20T16:05:53.135Z,12.66
2023-03-20T16:08:25.858Z,12.58
2023-03-20T16:11:00.597Z,12.39
2023-03-20T16:13:37.128Z,12.26
2023-03-20T16:16:14.988Z,12.16
2023-03-20T16:18:46.751Z,12.13
2023-03-20T16:21:22.965Z,12.03
2023-03-20T16:23:54.697Z,11.96
2023-03-20T16:26:25.802Z,11.88
2023-03-20T16:28:58.065Z,11.88
2023-03-20T16:31:31.882Z,11.86
2023-03-20T16:34:01.296Z,11.86
2023-03-20T16:36:31.899Z,11.80
2023-03-20T16:39:08.284Z,11.76
2023-03-20T16:41:38.810Z,11.68
2023-03-20T16:44:12.807Z,11.61
2023-03-20T16:46:58.995Z,11.48
2023-03-20T16:50:30.112Z,11.35
2023-03-20T16:52:59.811Z,11.24
2023-03-20T16:55:31.512Z,11.16
2023-03-20T16:58:02.159Z,11.08
2023-03-20T17:00:33.637Z,11.04
2023-03-20T17:03:13.731Z,10.98
2023-03-20T17:05:52.144Z,10.94
2023-03-20T17:08:29.847Z,10.92
2023-03-20T17:11:01.600Z,10.86
2023-03-20T17:13:30.398Z,10.79
2023-03-20T17:16:03.546Z,10.75
2023-03-20T17:18:35.987Z,10.71
2023-03-20T17:21:04.880Z,10.71
2023-03-20T17:23:36.723Z,10.70
2023-03-20T17:26:05.756Z,10.70
2023-03-20T17:28:37.294Z,10.70
2023-03-20T17:31:06.493Z,10.69
2023-03-20T17:33:36.771Z,10.71
2023-03-20T17:36:06.951Z,10.70
2023-03-20T17:38:35.823Z,10.67
2023-03-20T17:41:04.543Z,10.63
2023-03-20T17:43:33.518Z,10.56
2023-03-20T17:46:02.417Z,10.52
2023-03-20T17:48:31.227Z,9.21
2023-03-20T17:51:02.572Z,10.47
2023-03-20T17:53:31.610Z,10.48
2023-03-20T17:56:00.426Z,10.50
2023-03-20T17:58:29.356Z,10.48
2023-03-20T18:00:58.169Z,10.47
2023-03-20T18:03:27.167Z,10.48
2023-03-20T18:05:56.702Z,10.48
2023-03-20T18:08:27.078Z,10.47
2023-03-20T18:10:56.792Z,10.45
2023-03-20T18:13:28.592Z,10.43
2023-03-20T18:15:59.721Z,10.41
2023-03-20T18:18:28.700Z,10.40
2023-03-20T18:20:57.631Z,10.38
2023-03-20T18:23:28.144Z,10.41
2023-03-20T18:25:56.966Z,10.43
2023-03-20T18:28:26.117Z,10.44
2023-03-20T18:30:55.150Z,10.45
2023-03-20T18:33:27.686Z,10.43
2023-03-20T18:35:57.003Z,10.41
2023-03-20T18:38:33.099Z,10.40
2023-03-20T18:41:02.145Z,10.41
2023-03-20T18:43:32.612Z,10.43
2023-03-20T18:46:01.621Z,10.42
2023-03-20T18:48:31.165Z,10.42
2023-03-20T18:51:01.815Z,10.42
2023-03-20T18:53:32.071Z,10.44
2023-03-20T18:56:01.748Z,10.44
2023-03-20T18:58:31.737Z,10.47
2023-03-20T19:01:01.642Z,10.46
2023-03-20T19:03:30.630Z,10.46
2023-03-20T19:06:00.146Z,10.44
2023-03-20T19:08:30.197Z,10.44
2023-03-20T19:11:00.499Z,10.44
2023-03-20T19:13:29.356Z,10.44
2023-03-20T19:15:58.227Z,10.46
2023-03-20T19:18:28.076Z,10.46
2023-03-20T19:20:58.046Z,10.47
2023-03-20T19:23:29.029Z,10.43
2023-03-20T19:26:00.738Z,10.42
2023-03-20T19:28:40.702Z,10.42
2023-03-20T19:31:10.971Z,10.41
2023-03-20T19:33:40.880Z,10.39
2023-03-20T19:36:24.471Z,10.33
2023-03-20T19:38:53.578Z,10.36
2023-03-20T19:41:23.839Z,10.33
2023-03-20T19:43:55.394Z,10.28
2023-03-20T19:46:39.284Z,10.27
2023-03-20T19:49:18.072Z,10.28
2023-03-20T19:51:48.000Z,10.25
2023-03-20T19:54:17.078Z,10.18
2023-03-20T19:56:47.381Z,10.14
2023-03-20T19:59:17.055Z,10.13
2023-03-20T20:01:46.985Z,10.12
2023-03-20T20:04:16.646Z,10.11
2023-03-20T20:06:47.460Z,10.16
2023-03-20T20:09:18.118Z,10.21
2023-03-20T20:11:48.293Z,10.26
2023-03-20T20:14:17.211Z,10.28
2023-03-20T20:16:47.291Z,10.26
2023-03-20T20:19:16.345Z,10.27
2023-03-20T20:24:34.034Z,10.27
2023-03-20T20:27:16.939Z,10.29
2023-03-20T20:29:52.208Z,10.29
2023-03-20T20:32:24.572Z,10.26
2023-03-20T20:40:32.682Z,10.18
2023-03-20T20:43:09.706Z,10.14
2023-03-20T20:45:40.822Z,10.15
2023-03-20T20:48:10.332Z,10.12
2023-03-20T20:50:40.831Z,10.08
2023-03-20T20:53:09.523Z,10.05
2023-03-20T20:55:38.555Z,10.02
2023-03-20T20:58:08.819Z,9.95
2023-03-20T21:00:50.095Z,9.88
2023-03-20T21:03:22.004Z,9.83
2023-03-20T21:05:51.153Z,9.80
2023-03-20T21:08:19.869Z,9.79
2023-03-20T21:10:49.551Z,9.79
2023-03-20T21:13:20.468Z,9.82
2023-03-20T21:15:58.544Z,9.83
2023-03-20T21:18:27.405Z,9.80
2023-03-20T21:21:03.813Z,9.77
2023-03-20T21:23:32.337Z,9.66
2023-03-20T21:26:01.642Z,9.67
2023-03-20T21:28:31.703Z,9.66
2023-03-20T21:33:49.133Z,9.72
2023-03-20T21:36:18.175Z,9.79
2023-03-20T21:39:06.807Z,9.76
2023-03-20T21:41:35.885Z,9.76
2023-03-20T21:44:06.411Z,9.76
2023-03-20T21:52:54.477Z,9.75
2023-03-20T21:55:48.273Z,9.78
2023-03-20T22:01:21.658Z,9.75
2023-03-20T22:04:19.032Z,9.79
2023-03-20T22:07:24.045Z,9.79
2023-03-20T22:12:49.893Z,9.74
2023-03-20T22:18:28.785Z,9.72
2023-03-20T22:21:29.544Z,9.71
2023-03-20T22:29:39.317Z,9.71
2023-03-20T22:44:07.632Z,9.76
2023-03-20T22:46:09.971Z,9.73
2023-03-20T22:48:43.186Z,9.71
2023-03-20T22:51:13.804Z,9.70
2023-03-20T22:53:42.564Z,9.68
2023-03-20T22:56:13.009Z,9.65
2023-03-20T22:58:41.744Z,9.66
2023-03-20T23:01:13.955Z,9.67
2023-03-20T23:03:43.882Z,9.65
2023-03-20T23:06:21.060Z,9.65
2023-03-20T23:08:55.529Z,9.66
2023-03-20T23:11:31.514Z,9.65
2023-03-20T23:14:03.826Z,9.66
2023-03-20T23:16:37.101Z,9.67
2023-03-20T23:19:05.857Z,9.67
2023-03-20T23:21:36.137Z,9.67
2023-03-20T23:24:05.210Z,9.65
2023-03-20T23:26:33.949Z,9.63
2023-03-20T23:29:03.461Z,9.60
2023-03-20T23:31:32.237Z,9.61
2023-03-20T23:34:01.125Z,9.61
2023-03-20T23:36:37.797Z,9.60
2023-03-20T23:39:10.751Z,9.58
2023-03-20T23:44:28.790Z,9.58
2023-03-20T23:46:57.764Z,9.58
2023-03-20T23:49:27.416Z,9.57
2023-03-20T23:51:56.176Z,9.60
2023-03-20T23:54:26.345Z,9.57
2023-03-20T23:56:55.037Z,9.55
2023-03-20T23:59:23.797Z,9.53
